Cebollita Spring, Valles Caldera, New Mexico Weather observations

Data are for 10 minute period ending at time listed.
 Day   Time   Solar   Ave.   Ave.  Ave.  Vector  Max.   Baro.   Total    
  of    of     Rad.   Air    Rel.  Wind   Wind   Wind  Press.  Precip.   
Year   Day            Temp.  Hum.  Speed  Dir.   Gust                    
2015   (MST)  Kw/m2    F      %     mph   deg.    mph    mb.     in.     
-------------------------------------------------------------------------
 245    1:30   0.00   51.3    77    1.2    70     1.8   99999.0    0.00 
 245    1:40   0.00   50.8    78    1.9    74     2.4   99999.0    0.00 
 245    1:50   0.00   50.0    80    1.8    68     2.4   99999.0    0.00 
 245    2:00   0.00   49.2    81    1.7    64     2.4   99999.0    0.00 
 245    2:10   0.00   48.5    82    1.6    58     2.4   99999.0    0.00 
 245    2:20   0.00   48.0    83    1.4    54     1.8   99999.0    0.00 
 245    2:30   0.00   47.8    83    1.1    49     2.4   99999.0    0.00 
 245    2:40   0.00   48.1    83    1.0    48     1.8   99999.0    0.00 
 245    2:50   0.00   48.6    83    0.3    29     1.8   99999.0    0.00 
 245    3:00   0.00   49.3    82    0.6     6     2.4   99999.0    0.00 
 245    3:10   0.00   50.0    81    1.3   350     3.6   99999.0    0.00 
 245    3:20   0.00   50.5    80    2.2   345     4.2   99999.0    0.00 
 245    3:30   0.00   50.9    80    3.0   336     4.8   99999.0    0.00 
 245    3:40   0.00   51.3    80    3.3   333     5.4   99999.0    0.00 
 245    3:50   0.00   51.7    78    3.2   332     4.8   99999.0    0.00 
 245    4:00   0.00   51.9    75    3.2   333     6.3   99999.0    0.00 
 245    4:10   0.00   52.2    74    2.9   331     4.8   99999.0    0.00 
 245    4:20   0.00   51.4    74    3.4   334     6.0   99999.0    0.00 
 245    4:30   0.00   51.1    74    2.6   340     5.7   99999.0    0.00 
 245    4:40   0.00   50.7    75    1.5   342     3.6   99999.0    0.00 
 245    4:50   0.00   49.4    78    1.2    18     3.6   99999.0    0.00 
 245    5:00   0.00   48.0    82    0.3    30     1.8   99999.0    0.00 
 245    5:10   0.00   47.1    84    0.8   355     4.2   99999.0    0.00 
 245    5:20   0.00   46.4    86    0.6    13     1.8   99999.0    0.00 
 245    5:30   0.00   46.0    87    1.6   359     3.6   99999.0    0.00 
 245    5:40   0.00   45.8    87    1.4     2     3.0   99999.0    0.00 
 245    5:50   0.01   45.9    87    2.0     5     3.6   99999.0    0.00 
 245    6:00   0.02   46.3    87    2.5   350     5.4   99999.0    0.00 
 245    6:10   0.03   47.1    85    3.1   354     5.4   99999.0    0.00 
 245    6:20   0.11   48.3    82    2.8   354     4.8   99999.0    0.00 
 245    6:30   0.20   50.1    80    3.6   352     5.4   99999.0    0.00 
 245    6:40   0.27   52.8    74    4.5   343     7.2   99999.0    0.00 
 245    6:50   0.29   55.8    67    4.3   345     7.2   99999.0    0.00 
 245    7:00   0.25   57.7    63    3.8   339     7.2   99999.0    0.00 
 245    7:10   0.25   58.9    61    4.2   340     7.2   99999.0    0.00 
 245    7:20   0.42   60.0    58    4.8   345     8.4   99999.0    0.00 
 245    7:30   0.47   61.5    56    3.9   339     6.6   99999.0    0.00 
 245    7:40   0.47   62.9    52    4.7   339     7.2   99999.0    0.00 
 245    7:50   0.51   64.1    49    5.2   337     8.4   99999.0    0.00 
 245    8:00   0.54   64.9    47    5.4   330    10.2   99999.0    0.00 
 245    8:10   0.43   65.4    46    5.4   334    13.1   99999.0    0.00 
 245    8:20   0.62   66.0    45    4.7   326     8.7   99999.0    0.00 
 245    8:30   0.59   67.0    43    4.4   306     9.6   99999.0    0.00 
 245    8:40   0.60   67.6    42    4.0   314     8.4   99999.0    0.00 
 245    8:50   0.56   68.7    40    3.6   323     7.2   99999.0    0.00 
 245    9:00   0.53   68.9    38    3.5   272     8.4   99999.0    0.00 
 245    9:10   0.58   69.3    38    4.1   261     7.2   99999.0    0.00 
 245    9:20   0.61   69.8    36    3.1   192     6.0   99999.0    0.00 
 245    9:30   0.62   70.1    37    4.1   261     8.4   99999.0    0.00 
 245    9:40   0.74   71.2    35    3.9   345    11.3   99999.0    0.00 
 245    9:50   0.70   71.0    35    6.0   306    13.7   99999.0    0.00 
 245   10:00   0.23   70.2    36    3.7   339     7.8   99999.0    0.00 
 245   10:10   0.61   69.6    37    4.1   312     6.6   99999.0    0.00 
 245   10:20   0.55   70.8    34    2.8   323     4.8   99999.0    0.00 
 245   10:30   0.81   71.3    33    3.9   246     9.6   99999.0    0.00 
 245   10:40   0.77   73.0    31    5.3   288    11.3   99999.0    0.00 
 245   10:50   0.72   73.2    31    5.2   242    12.5   99999.0    0.00 
 245   11:00   0.43   72.7    32    3.0   228     7.8   99999.0    0.00 
 245   11:10   0.33   72.0    32    4.5   239    10.8   99999.0    0.00 
 245   11:20   0.46   71.6    32    4.4   231     9.6   99999.0    0.00 
 245   11:30   0.84   73.6    30    5.3   290    11.9   99999.0    0.00 
 245   11:40   0.45   72.9    30    6.1   263    11.9   99999.0    0.00 
 245   11:50   0.77   73.7    30    3.8   236     7.2   99999.0    0.00 
 245   12:00   0.54   75.5    28    6.3   242    11.3   99999.0    0.00 
 245   12:10   0.30   72.4    30    5.6   236    14.9   99999.0    0.00 
 245   12:20   0.29   71.7    31    3.9   225    10.8   99999.0    0.00 
 245   12:30   0.29   71.4    32    7.3   274    13.1   99999.0    0.00 
 245   12:40   0.48   72.0    31    6.5   255    11.9   99999.0    0.00 
 245   12:50   0.33   72.0    31    7.0   250    15.5   99999.0    0.00 
 245   13:00   0.26   71.4    32    5.8   247    10.8   99999.0    0.00 
 245   13:10   0.44   71.4    32    7.3   250    14.9   99999.0    0.00 
 245   13:20   0.58   72.9    31    6.2   267    11.9   99999.0    0.00 
 245   13:30   0.80   74.0    30    5.7   237    12.5   99999.0    0.00 
 245   13:40   0.71   76.2    28    6.4   285    14.9   99999.0    0.00 
 245   13:50   0.80   76.8    27    5.6   278    13.1   99999.0    0.00 
 245   14:00   0.92   76.9    28    5.9   231    14.3   99999.0    0.00 
 245   14:10   0.98   78.0    27    8.1   265    15.5   99999.0    0.00 
 245   14:20   0.62   75.8    27    6.0   258    13.7   99999.0    0.00 
 245   14:30   0.97   76.3    27    7.7   274    15.5   99999.0    0.00 
 245   14:40   0.80   76.4    25    5.0   230    10.2   99999.0    0.00 
 245   14:50   0.68   76.6    25    4.8   247    10.8   99999.0    0.00 
 245   15:00   0.62   76.7    25    4.7   268    11.3   99999.0    0.00 
 245   15:10   0.44   75.5    26    4.9   249    13.1   99999.0    0.00 
 245   15:20   0.23   73.8    29    2.8   256     6.6   99999.0    0.00 
 245   15:30   0.18   71.2    36    5.0    33    11.9   99999.0    0.00 
 245   15:40   0.32   70.6    38    4.2     9     9.0   99999.0    0.00 
 245   15:50   0.34   70.6    37    4.9    27    10.2   99999.0    0.00 
 245   16:00   0.23   71.1    36    3.4    50     7.2   99999.0    0.00 
 245   16:10   0.20   70.5    37    4.3    42     7.8   99999.0    0.00 
 245   16:20   0.16   70.0    37    3.5    50     7.2   99999.0    0.00 
 245   16:30   0.15   69.7    39    3.3    42     6.0   99999.0    0.00 
 245   16:40   0.16   69.0    41    3.6    39     6.0   99999.0    0.00 
 245   16:50   0.18   69.6    38    3.3    48     6.6   99999.0    0.00 
 245   17:00   0.17   69.6    41    2.6   347     4.2   99999.0    0.00 
 245   17:10   0.17   66.4    68    4.7   350     9.6   99999.0    0.06 
 245   17:20   0.05   58.3    86    3.9    84     9.0   99999.0    0.00 
 245   17:30   0.03   57.3    95    2.9    93     4.8   99999.0    0.00 
 245   17:40   0.02   56.6    93    1.6     2     4.2   99999.0    0.00 
 245   17:50   0.02   56.5    94    4.5   269     9.6   99999.0    0.00 
 245   18:00   0.02   56.7    80    7.4   276    15.5   99999.0    0.00 
 245   18:10   0.02   56.4    76    4.4   278     7.8   99999.0    0.00 
 245   18:20   0.01   56.0    79    3.2   285     7.8   99999.0    0.00 
 245   18:30   0.00   54.7    87    1.7   107     6.0   99999.0    0.00 
 245   18:40   0.00   54.4    84    4.1   117     7.2   99999.0    0.00 
 245   18:50   0.00   55.1    80    5.3   158    11.9   99999.0    0.00 
 245   19:00   0.00   53.8    87    5.4   154    12.5   99999.0    0.07 
 245   19:10   0.00   52.3    95    5.1   176    10.2   99999.0    0.06 
 245   19:20   0.00   52.3    97    4.7   152    10.2   99999.0    0.04 
 245   19:30   0.00   52.3    98    3.3   146     6.6   99999.0    0.02 
 245   19:40   0.00   52.0    98    2.4   118     5.4   99999.0    0.01 
 245   19:50   0.00   51.9    98    4.2    29     7.8   99999.0    0.02 
 245   20:00   0.00   51.8    99    5.1   332     9.0   99999.0    0.00 
 245   20:10   0.00   51.5    98    6.2   338    12.5   99999.0    0.01 
 245   20:20   0.00   51.3    96    7.5   338    13.7   99999.0    0.00 
 245   20:30   0.00   51.6    93    8.2   340    14.3   99999.0    0.00 
 245   20:40   0.00   51.7    92    6.2   343    13.1   99999.0    0.00 
 245   20:50   0.00   51.8    88    5.8     8    10.8   99999.0    0.00 
 245   21:00   0.00   51.5    90    1.5   205     4.8   99999.0    0.00 
 245   21:10   0.00   50.2    96    1.5    10     3.6   99999.0    0.00 
 245   21:20   0.00   49.4    97    1.4     5     2.4   99999.0    0.00 
 245   21:30   0.00   49.2    98    2.5   332     4.8   99999.0    0.00 
 245   21:40   0.00   49.4    99    3.7   342     7.2   99999.0    0.00 
 245   21:50   0.00   49.7    98    2.3   338     4.2   99999.0    0.00 
 245   22:00   0.00   49.5    98    3.0     4     5.1   99999.0    0.00 
 245   22:10   0.00   49.4    98    2.4    28     4.8   99999.0    0.00 
 245   22:20   0.00   49.3    99    1.7    44     4.2   99999.0    0.00 
 245   22:30   0.00   49.6    99    1.5    32     3.0   99999.0    0.00 
 245   22:40   0.00   49.6    99    1.2    75     2.4   99999.0    0.00 
 245   22:50   0.00   49.5    99    0.6    39     2.4   99999.0    0.00 
 245   23:00   0.00   49.0    99    0.2    59     1.2   99999.0    0.00 
 245   23:10   0.00   48.6    99    0.9    61     1.8   99999.0    0.00 
 245   23:20   0.00   48.3    99    0.8    48     1.8   99999.0    0.00 
 245   23:30   0.00   48.1    99    0.9    58     2.4   99999.0    0.00 
 245   23:40   0.00   48.0    99    0.7    63     1.8   99999.0    0.00 
 245   23:50   0.00   48.1    99    0.5    55     1.8   99999.0    0.00 
 246    0:00   0.00   48.4   100    0.1    61     1.2   99999.0    0.00 
 246    0:10   0.00   48.6   100    0.8    47     1.8   99999.0    0.00 
 246    0:20   0.00   48.3   100    0.3    56     1.8   99999.0    0.00 
 246    0:30   0.00   48.2   100    0.6    48     1.8   99999.0    0.00 
 246    0:40   0.00   48.2   100    1.8    61     3.6   99999.0    0.00 
 246    0:50   0.00   48.2   100    0.1    65     1.2   99999.0    0.00 
 246    1:00   0.00   48.3   100    1.0    56     2.4   99999.0    0.00 
 246    1:10   0.00   48.6   100    0.0     0     0.0   99999.0    0.00 
 246    1:20   0.00   48.8   100    0.0     0     0.0   99999.0    0.00 

Return to Cebollita Spring, Valles Caldera graphs page.


Western Regional Climate Center,wrcc@dri.edu